createdAt,value
2018-07-10T00:02:24.320Z,0.90
2018-07-10T00:07:19.488Z,0.70
2018-07-10T00:09:58.199Z,1.23
2018-07-10T00:12:26.444Z,1.13
2018-07-10T00:14:54.755Z,1.00
2018-07-10T00:17:23.153Z,0.70
2018-07-10T00:19:51.411Z,0.90
2018-07-10T00:22:19.663Z,0.70
2018-07-10T00:24:47.976Z,0.73
2018-07-10T00:27:16.323Z,0.77
2018-07-10T00:29:44.557Z,0.73
2018-07-10T00:32:12.777Z,0.80
2018-07-10T00:34:41.077Z,0.67
2018-07-10T00:37:09.321Z,1.03
2018-07-10T00:39:37.611Z,0.97
2018-07-10T00:42:05.838Z,0.90
2018-07-10T00:44:34.181Z,0.80
2018-07-10T00:47:02.532Z,1.50
2018-07-10T00:49:30.750Z,1.10
2018-07-10T00:51:59.015Z,0.60
2018-07-10T00:54:27.353Z,1.13
2018-07-10T00:56:55.607Z,0.80
2018-07-10T00:59:23.788Z,0.87
2018-07-10T01:01:51.987Z,1.13
2018-07-10T01:04:21.412Z,1.33
2018-07-10T01:06:49.670Z,1.33
2018-07-10T01:09:17.880Z,1.13
2018-07-10T01:11:46.405Z,0.97
2018-07-10T01:14:14.751Z,0.97
2018-07-10T01:16:43.028Z,1.07
2018-07-10T01:19:12.694Z,1.23
2018-07-10T01:21:41.972Z,1.10
2018-07-10T01:24:10.236Z,0.83
2018-07-10T01:26:40.188Z,0.93
2018-07-10T01:29:20.179Z,1.13
2018-07-10T01:31:49.901Z,1.13
2018-07-10T01:34:19.364Z,1.13
2018-07-10T01:36:47.617Z,0.80
2018-07-10T01:39:16.036Z,1.13
2018-07-10T01:41:44.245Z,1.20
2018-07-10T01:44:13.721Z,0.90
2018-07-10T01:46:41.938Z,0.97
2018-07-10T01:49:23.680Z,1.30
2018-07-10T01:51:51.973Z,1.02
2018-07-10T01:54:21.328Z,1.00
2018-07-10T01:56:49.885Z,1.30
2018-07-10T01:59:18.692Z,1.00
2018-07-10T02:01:46.946Z,1.50
2018-07-10T02:04:16.182Z,1.10
2018-07-10T02:06:44.407Z,1.23
2018-07-10T02:09:12.647Z,1.00
2018-07-10T02:11:40.951Z,1.03
2018-07-10T02:14:09.382Z,0.90
2018-07-10T02:16:37.597Z,0.60
2018-07-10T02:19:05.789Z,0.87
2018-07-10T02:21:34.156Z,1.40
2018-07-10T02:24:02.378Z,1.47
2018-07-10T02:26:30.715Z,1.53
2018-07-10T02:28:59.456Z,1.17
2018-07-10T02:31:27.688Z,1.27
2018-07-10T02:33:55.881Z,1.00
2018-07-10T02:36:27.720Z,0.93
2018-07-10T02:38:58.974Z,1.13
2018-07-10T02:41:27.206Z,0.93
2018-07-10T02:43:58.745Z,1.30
2018-07-10T02:46:28.034Z,1.10
2018-07-10T02:49:29.471Z,1.10
2018-07-10T02:52:00.032Z,1.30
2018-07-10T02:54:30.386Z,0.87
2018-07-10T02:56:58.733Z,1.17
2018-07-10T02:59:36.168Z,1.70
2018-07-10T03:02:05.643Z,1.10
2018-07-10T03:04:35.212Z,1.30
2018-07-10T03:07:03.797Z,1.57
2018-07-10T03:09:32.072Z,1.67
2018-07-10T03:12:01.034Z,1.40
2018-07-10T03:14:29.464Z,1.57
2018-07-10T03:16:58.625Z,1.60
2018-07-10T03:19:28.579Z,1.47
2018-07-10T03:21:56.956Z,1.40
2018-07-10T03:24:25.413Z,1.63
2018-07-10T03:26:54.098Z,1.60
2018-07-10T03:29:22.436Z,1.20
2018-07-10T03:31:50.844Z,1.53
2018-07-10T03:34:19.296Z,1.33
2018-07-10T03:36:47.629Z,1.50
2018-07-10T03:39:16.163Z,1.40
2018-07-10T03:41:44.576Z,1.33
2018-07-10T03:44:14.063Z,1.40
2018-07-10T03:46:43.041Z,1.50
2018-07-10T03:49:10.991Z,1.27
2018-07-10T03:51:39.249Z,1.30
2018-07-10T03:54:07.563Z,1.63
2018-07-10T03:56:36.091Z,1.40
2018-07-10T03:59:04.328Z,1.60
2018-07-10T04:01:36.732Z,1.27
2018-07-10T04:04:05.463Z,1.33
2018-07-10T04:06:34.434Z,1.50
2018-07-10T04:09:04.619Z,1.33
2018-07-10T04:11:32.990Z,1.60
2018-07-10T04:14:01.209Z,1.10
2018-07-10T04:16:29.837Z,1.50
2018-07-10T04:18:58.044Z,1.30
2018-07-10T04:21:27.517Z,1.97
2018-07-10T04:24:04.163Z,1.20
2018-07-10T04:26:35.060Z,1.37
2018-07-10T04:30:11.571Z,1.47
2018-07-10T04:32:41.000Z,1.40
2018-07-10T04:35:11.592Z,1.60
2018-07-10T04:37:41.090Z,1.63
2018-07-10T04:40:09.808Z,1.00
2018-07-10T04:42:50.138Z,1.17
2018-07-10T04:45:20.462Z,1.20
2018-07-10T04:47:55.672Z,1.37
2018-07-10T04:50:40.246Z,1.07
2018-07-10T04:53:12.552Z,1.50
2018-07-10T04:55:41.700Z,1.47
2018-07-10T04:58:15.628Z,1.27
2018-07-10T05:00:46.223Z,1.00
2018-07-10T05:03:15.665Z,1.20
2018-07-10T05:05:44.545Z,1.20
2018-07-10T05:08:13.162Z,1.23
2018-07-10T05:10:41.355Z,1.50
2018-07-10T05:13:09.577Z,1.30
2018-07-10T05:15:38.991Z,1.30
2018-07-10T05:18:09.248Z,1.60
2018-07-10T05:20:38.665Z,1.20
2018-07-10T05:23:06.931Z,1.30
2018-07-10T05:25:37.483Z,1.43
2018-07-10T05:28:05.774Z,1.30
2018-07-10T05:30:35.707Z,1.10
2018-07-10T05:33:04.235Z,1.20
2018-07-10T05:35:32.540Z,1.20
2018-07-10T05:38:03.412Z,1.57
2018-07-10T05:40:31.688Z,1.57
2018-07-10T05:43:03.397Z,1.20
2018-07-10T05:45:31.729Z,1.80
2018-07-10T05:48:01.877Z,1.50
2018-07-10T05:50:30.731Z,1.50
2018-07-10T05:52:58.978Z,1.97
2018-07-10T05:55:30.666Z,1.40
2018-07-10T05:57:59.951Z,1.97
2018-07-10T06:00:28.801Z,1.90
2018-07-10T06:02:57.416Z,1.90
2018-07-10T06:05:26.486Z,1.70
2018-07-10T06:07:54.974Z,1.60
2018-07-10T06:10:24.524Z,1.73
2018-07-10T06:12:54.255Z,2.10
2018-07-10T06:15:22.930Z,2.03
2018-07-10T06:17:51.207Z,2.53
2018-07-10T06:20:19.547Z,2.47
2018-07-10T06:22:47.891Z,3.00
2018-07-10T06:25:16.741Z,3.33
2018-07-10T06:27:48.294Z,2.60
2018-07-10T06:30:16.571Z,4.07
2018-07-10T06:32:52.167Z,2.90
2018-07-10T06:35:28.555Z,2.30
2018-07-10T06:37:57.023Z,2.47
2018-07-10T06:40:25.428Z,5.73
2018-07-10T06:43:14.832Z,2.30
2018-07-10T06:45:43.428Z,2.33
2018-07-10T06:48:12.588Z,2.00
2018-07-10T06:50:40.786Z,2.50
2018-07-10T06:53:10.905Z,2.70
2018-07-10T06:55:51.752Z,2.00
2018-07-10T06:58:22.115Z,2.60
2018-07-10T07:00:51.551Z,2.80
2018-07-10T07:03:21.223Z,2.73
2018-07-10T07:05:49.551Z,2.73
2018-07-10T07:08:18.335Z,2.80
2018-07-10T07:10:46.371Z,2.37
2018-07-10T07:13:14.633Z,2.50
2018-07-10T07:15:43.090Z,3.10
2018-07-10T07:18:11.310Z,2.73
2018-07-10T07:20:39.677Z,3.93
2018-07-10T07:23:07.916Z,3.00
2018-07-10T07:25:36.356Z,2.60
2018-07-10T07:28:04.853Z,3.17
2018-07-10T07:30:33.128Z,3.10
2018-07-10T07:33:01.385Z,2.50
2018-07-10T07:35:29.652Z,3.73
2018-07-10T07:37:57.853Z,2.67
2018-07-10T07:40:26.364Z,2.97
2018-07-10T07:42:54.562Z,2.83
2018-07-10T07:45:22.974Z,2.70
2018-07-10T07:47:51.180Z,2.70
2018-07-10T07:50:20.120Z,2.60
2018-07-10T07:52:48.374Z,3.47
2018-07-10T07:55:16.656Z,3.00
2018-07-10T07:57:44.918Z,3.10
2018-07-10T08:00:13.226Z,2.90
2018-07-10T08:02:41.565Z,3.10
2018-07-10T08:05:09.992Z,2.73
2018-07-10T08:07:38.262Z,3.47
2018-07-10T08:10:06.914Z,3.47
2018-07-10T08:12:35.105Z,3.07
2018-07-10T08:15:04.183Z,3.93
2018-07-10T08:17:38.985Z,3.17
2018-07-10T08:20:08.172Z,3.40
2018-07-10T08:22:36.621Z,3.73
2018-07-10T08:25:05.568Z,3.30
2018-07-10T08:27:36.159Z,4.03
2018-07-10T08:30:04.441Z,3.90
2018-07-10T08:32:32.684Z,3.93
2018-07-10T08:35:00.932Z,3.80
2018-07-10T08:37:29.142Z,3.90
2018-07-10T08:39:57.422Z,3.60
2018-07-10T08:42:25.660Z,3.63
2018-07-10T08:44:54.349Z,4.03
2018-07-10T08:47:22.634Z,3.80
2018-07-10T08:49:50.846Z,4.40
2018-07-10T08:52:19.794Z,4.23
2018-07-10T08:54:48.635Z,4.90
2018-07-10T08:57:16.932Z,3.90
2018-07-10T08:59:45.234Z,4.60
2018-07-10T09:02:13.527Z,4.53
2018-07-10T09:04:41.956Z,4.77
2018-07-10T09:07:10.199Z,5.77
2018-07-10T09:09:38.400Z,4.50
2018-07-10T09:12:06.639Z,4.70
2018-07-10T09:14:36.991Z,4.47
2018-07-10T09:17:05.369Z,5.17
2018-07-10T09:19:33.586Z,4.77
2018-07-10T09:22:08.193Z,4.80
2018-07-10T09:24:38.833Z,5.70
2018-07-10T09:27:09.037Z,4.43
2018-07-10T09:29:38.243Z,4.37
2018-07-10T09:32:07.835Z,5.20
2018-07-10T09:34:36.207Z,4.63
2018-07-10T09:37:08.599Z,5.27
2018-07-10T09:39:36.993Z,4.70
2018-07-10T09:42:05.556Z,5.43
2018-07-10T09:44:33.913Z,3.73
2018-07-10T09:47:02.181Z,5.00
2018-07-10T09:49:30.147Z,4.37
2018-07-10T09:51:58.338Z,4.20
2018-07-10T09:54:26.626Z,4.07
2018-07-10T09:56:54.857Z,4.07
2018-07-10T09:59:23.096Z,4.37
2018-07-10T10:01:51.368Z,4.47
2018-07-10T10:04:19.782Z,3.17
2018-07-10T10:06:48.022Z,4.77
2018-07-10T10:09:16.602Z,4.63
2018-07-10T10:11:44.835Z,4.50
2018-07-10T10:14:13.220Z,4.23
2018-07-10T10:16:41.582Z,4.50
2018-07-10T10:19:10.086Z,4.20
2018-07-10T10:21:38.312Z,4.47
2018-07-10T10:24:07.588Z,3.63
2018-07-10T10:26:35.836Z,4.77
2018-07-10T10:29:04.049Z,4.63
2018-07-10T10:31:32.332Z,3.57
2018-07-10T10:34:00.694Z,3.93
2018-07-10T10:36:29.040Z,4.77
2018-07-10T10:38:57.271Z,4.10
2018-07-10T10:41:25.541Z,4.10
2018-07-10T10:43:53.824Z,4.27
2018-07-10T10:46:22.393Z,4.30
2018-07-10T10:48:51.116Z,4.57
2018-07-10T10:51:20.469Z,5.60
2018-07-10T10:54:00.751Z,5.63
2018-07-10T10:56:29.014Z,4.70
2018-07-10T10:58:57.240Z,4.97
2018-07-10T11:01:25.467Z,4.53
2018-07-10T11:03:53.705Z,4.83
2018-07-10T11:06:21.992Z,4.90
2018-07-10T11:08:50.289Z,5.30
2018-07-10T11:11:18.563Z,6.10
2018-07-10T11:13:46.733Z,5.30
2018-07-10T11:16:15.096Z,5.47
2018-07-10T11:18:50.079Z,5.93
2018-07-10T11:21:31.424Z,5.23
2018-07-10T11:23:59.642Z,5.07
2018-07-10T11:26:34.561Z,5.57
2018-07-10T11:29:03.424Z,5.53
2018-07-10T11:31:31.709Z,5.93
2018-07-10T11:33:59.991Z,5.47
2018-07-10T11:36:28.007Z,6.27
2018-07-10T11:38:59.512Z,4.97
2018-07-10T11:41:28.369Z,5.80
2018-07-10T11:43:56.574Z,5.60
2018-07-10T11:46:24.808Z,5.43
2018-07-10T11:48:53.030Z,5.27
2018-07-10T11:51:21.305Z,5.30
2018-07-10T11:53:49.595Z,5.37
2018-07-10T11:56:18.048Z,6.30
2018-07-10T11:58:46.248Z,5.47
2018-07-10T12:01:14.526Z,5.53
2018-07-10T12:03:42.738Z,5.27
2018-07-10T12:06:11.582Z,5.17
2018-07-10T12:08:40.067Z,5.37
2018-07-10T12:11:14.202Z,5.40
2018-07-10T12:13:42.641Z,5.60
2018-07-10T12:16:11.098Z,5.63
2018-07-10T12:18:39.077Z,5.63
2018-07-10T12:21:07.945Z,5.50
2018-07-10T12:23:36.168Z,4.73
2018-07-10T12:26:05.787Z,5.03
2018-07-10T12:28:34.106Z,4.27
2018-07-10T12:31:02.585Z,4.87
2018-07-10T12:33:30.847Z,6.10
2018-07-10T12:35:59.279Z,4.80
2018-07-10T12:38:27.475Z,5.13
2018-07-10T12:40:55.722Z,4.83
2018-07-10T12:43:23.976Z,4.93
2018-07-10T12:45:52.122Z,5.27
2018-07-10T12:48:20.393Z,5.03
2018-07-10T12:50:48.755Z,4.50
2018-07-10T12:53:16.951Z,5.13
2018-07-10T12:55:45.322Z,4.80
2018-07-10T12:58:13.573Z,4.00
2018-07-10T13:00:41.793Z,4.60
2018-07-10T13:03:10.917Z,4.23
2018-07-10T13:05:53.626Z,3.47
2018-07-10T13:08:21.976Z,3.37
2018-07-10T13:10:50.234Z,3.83
2018-07-10T13:13:18.410Z,3.47
2018-07-10T13:15:47.909Z,3.87
2018-07-10T13:18:19.685Z,4.03
2018-07-10T13:20:47.940Z,3.80
2018-07-10T13:25:50.956Z,4.17
2018-07-10T13:28:19.520Z,3.70
2018-07-10T13:30:47.810Z,3.87
2018-07-10T13:33:16.086Z,2.97
2018-07-10T13:35:44.493Z,3.10
2018-07-10T13:38:12.989Z,3.53
2018-07-10T13:40:41.344Z,2.77
2018-07-10T13:43:09.712Z,3.50
2018-07-10T13:45:37.969Z,3.13
2018-07-10T13:48:06.230Z,2.87
2018-07-10T13:50:34.877Z,2.67
2018-07-10T13:53:03.975Z,2.97
2018-07-10T13:55:32.854Z,2.80
2018-07-10T13:58:04.548Z,2.97
2018-07-10T14:00:35.278Z,3.37
2018-07-10T14:03:03.521Z,3.57
2018-07-10T14:05:32.008Z,3.40
2018-07-10T14:08:00.221Z,2.70
2018-07-10T14:10:28.568Z,3.90
2018-07-10T14:12:56.782Z,2.87
2018-07-10T14:15:25.074Z,3.50
2018-07-10T14:17:53.727Z,3.03
2018-07-10T14:20:21.990Z,3.07
2018-07-10T14:22:50.197Z,3.13
2018-07-10T14:25:18.601Z,3.10
2018-07-10T14:27:46.804Z,3.60
2018-07-10T14:30:15.156Z,2.90
2018-07-10T14:32:43.415Z,2.90
2018-07-10T14:35:12.704Z,2.97
2018-07-10T14:37:40.987Z,2.83
2018-07-10T14:40:09.254Z,3.10
2018-07-10T14:42:37.772Z,2.63
2018-07-10T14:45:06.965Z,3.40
2018-07-10T14:47:37.125Z,3.20
2018-07-10T14:50:05.410Z,3.10
2018-07-10T14:52:33.652Z,2.90
2018-07-10T14:55:02.045Z,3.50
2018-07-10T14:57:30.452Z,3.40
2018-07-10T14:59:58.664Z,2.53
2018-07-10T15:02:26.864Z,2.47
2018-07-10T15:04:55.376Z,2.83
2018-07-10T15:07:24.111Z,2.67
2018-07-10T15:09:52.742Z,3.23
2018-07-10T15:12:21.282Z,3.83
2018-07-10T15:14:49.937Z,2.70
2018-07-10T15:17:23.708Z,2.90
2018-07-10T15:19:52.011Z,3.13
2018-07-10T15:22:20.238Z,3.10
2018-07-10T15:24:48.616Z,3.07
2018-07-10T15:27:16.916Z,3.13
2018-07-10T15:29:45.144Z,3.20
2018-07-10T15:32:13.472Z,3.10
2018-07-10T15:34:42.764Z,2.77
2018-07-10T15:37:11.042Z,3.03
2018-07-10T15:39:39.315Z,2.60
2018-07-10T15:42:07.585Z,2.93
2018-07-10T15:44:35.868Z,3.63
2018-07-10T15:47:04.123Z,2.93
2018-07-10T15:49:32.370Z,3.43
2018-07-10T15:52:01.574Z,2.90
2018-07-10T15:54:31.592Z,3.10
2018-07-10T15:56:59.855Z,3.10
2018-07-10T15:59:28.096Z,3.03
2018-07-10T16:01:56.326Z,2.77
2018-07-10T16:04:24.747Z,2.53
2018-07-10T16:06:54.203Z,2.97
2018-07-10T16:09:22.906Z,2.80
2018-07-10T16:12:06.281Z,3.30
2018-07-10T16:14:36.815Z,3.17
2018-07-10T16:17:16.684Z,2.60
2018-07-10T16:19:46.314Z,2.50
2018-07-10T16:22:22.158Z,2.80
2018-07-10T16:24:52.465Z,2.83
2018-07-10T16:27:30.124Z,2.67
2018-07-10T16:29:58.940Z,2.77
2018-07-10T16:32:27.163Z,3.20
2018-07-10T16:34:55.494Z,2.20
2018-07-10T16:37:23.760Z,2.30
2018-07-10T16:39:52.214Z,2.80
2018-07-10T16:42:25.877Z,1.83
2018-07-10T16:44:54.757Z,1.93
2018-07-10T16:47:30.076Z,2.17
2018-07-10T16:50:00.584Z,2.70
2018-07-10T16:52:46.611Z,2.10
2018-07-10T16:55:15.174Z,2.40
2018-07-10T16:57:43.653Z,2.43
2018-07-10T17:00:11.916Z,2.20
2018-07-10T17:02:40.260Z,2.00
2018-07-10T17:05:08.647Z,1.67
2018-07-10T17:07:36.861Z,2.43
2018-07-10T17:10:05.167Z,2.70
2018-07-10T17:12:33.470Z,1.63
2018-07-10T17:15:02.041Z,2.13
2018-07-10T17:17:30.835Z,1.70
2018-07-10T17:19:59.275Z,1.73
2018-07-10T17:22:27.609Z,1.83
2018-07-10T17:24:56.598Z,2.13
2018-07-10T17:27:32.509Z,1.70
2018-07-10T17:30:01.936Z,2.13
2018-07-10T17:32:30.473Z,1.93
2018-07-10T17:34:59.289Z,2.23
2018-07-10T17:37:27.815Z,1.80
2018-07-10T17:39:59.693Z,2.37
2018-07-10T17:42:28.002Z,1.90
2018-07-10T17:44:56.359Z,2.13
2018-07-10T17:47:24.627Z,2.00
2018-07-10T17:49:52.876Z,1.93
2018-07-10T17:52:21.199Z,1.93
2018-07-10T17:54:49.569Z,1.90
2018-07-10T17:57:17.904Z,2.03
2018-07-10T17:59:46.275Z,1.70
2018-07-10T18:02:14.581Z,1.70
2018-07-10T18:04:44.813Z,1.70
2018-07-10T18:07:13.140Z,1.60
2018-07-10T18:09:41.957Z,1.60
2018-07-10T18:12:10.498Z,1.90
2018-07-10T18:14:38.890Z,2.13
2018-07-10T18:17:07.192Z,2.30
2018-07-10T18:19:35.492Z,1.83
2018-07-10T18:22:03.829Z,1.57
2018-07-10T18:24:32.252Z,1.83
2018-07-10T18:27:00.492Z,1.90
2018-07-10T18:29:28.724Z,1.80
2018-07-10T18:31:57.069Z,2.03
2018-07-10T18:34:25.606Z,1.80
2018-07-10T18:36:54.381Z,1.93
2018-07-10T18:39:22.654Z,1.93
2018-07-10T18:41:50.911Z,1.93
2018-07-10T18:44:19.228Z,1.87
2018-07-10T18:46:47.484Z,2.00
2018-07-10T18:49:15.780Z,1.93
2018-07-10T18:51:44.097Z,1.60
2018-07-10T18:54:12.547Z,2.13
2018-07-10T18:56:40.709Z,1.37
2018-07-10T18:59:12.061Z,1.67
2018-07-10T19:02:04.621Z,1.80
2018-07-10T19:04:37.872Z,1.73
2018-07-10T19:07:05.860Z,1.50
2018-07-10T19:09:35.411Z,1.73
2018-07-10T19:12:06.166Z,1.30
2018-07-10T19:15:05.355Z,1.60
2018-07-10T19:17:34.042Z,1.60
2018-07-10T19:20:04.920Z,1.27
2018-07-10T19:22:41.881Z,1.43
2018-07-10T19:25:12.145Z,1.80
2018-07-10T19:27:40.381Z,1.37
2018-07-10T19:30:09.746Z,1.10
2018-07-10T19:32:38.711Z,1.47
2018-07-10T19:35:07.495Z,1.50
2018-07-10T19:37:36.938Z,1.87
2018-07-10T19:40:05.540Z,1.60
2018-07-10T19:42:34.969Z,1.47
2018-07-10T19:45:04.532Z,1.70
2018-07-10T19:47:33.077Z,1.63
2018-07-10T19:50:08.361Z,1.57
2018-07-10T19:52:36.628Z,1.40
2018-07-10T19:55:04.964Z,1.50
2018-07-10T19:58:44.794Z,1.60
2018-07-10T20:01:18.844Z,1.40
2018-07-10T20:03:59.448Z,1.47
2018-07-10T20:06:32.886Z,1.23
2018-07-10T20:09:06.768Z,1.67
2018-07-10T20:11:39.980Z,1.77
2018-07-10T20:14:09.379Z,1.73
2018-07-10T20:16:43.346Z,1.80
2018-07-10T20:19:25.433Z,1.67
2018-07-10T20:22:08.025Z,1.70
2018-07-10T20:24:41.560Z,1.70
2018-07-10T20:27:17.205Z,1.90
2018-07-10T20:30:00.810Z,1.70
2018-07-10T20:32:37.388Z,2.43
2018-07-10T20:35:15.103Z,1.80
2018-07-10T20:37:44.446Z,1.60
2018-07-10T20:40:15.598Z,1.70
2018-07-10T20:42:44.620Z,1.97
2018-07-10T20:45:13.040Z,2.00
2018-07-10T20:47:49.372Z,1.90
2018-07-10T20:50:27.214Z,2.10
2018-07-10T20:53:01.556Z,1.77
2018-07-10T20:55:40.124Z,1.50
2018-07-10T20:58:11.166Z,2.00
2018-07-10T21:00:41.570Z,1.67
2018-07-10T21:04:22.612Z,1.87
2018-07-10T21:06:57.031Z,1.87
2018-07-10T21:09:44.319Z,2.00
2018-07-10T21:12:16.941Z,1.47
2018-07-10T21:15:21.161Z,1.60
2018-07-10T21:18:57.069Z,1.43
2018-07-10T21:21:35.947Z,2.30
2018-07-10T21:24:15.274Z,1.70
2018-07-10T21:26:53.999Z,1.80
2018-07-10T21:29:30.401Z,1.50
2018-07-10T21:32:04.670Z,1.83
2018-07-10T21:34:42.760Z,1.43
2018-07-10T21:37:20.920Z,1.27
2018-07-10T21:40:19.566Z,1.60
2018-07-10T21:43:57.756Z,1.90
2018-07-10T21:46:37.424Z,1.67
2018-07-10T21:49:11.960Z,1.63
2018-07-10T21:51:43.803Z,1.80
2018-07-10T21:54:13.251Z,1.50
2018-07-10T21:56:41.739Z,1.80
2018-07-10T21:59:11.299Z,2.20
2018-07-10T22:01:49.210Z,1.70
2018-07-10T22:04:21.716Z,2.03
2018-07-10T22:06:52.090Z,2.13
2018-07-10T22:09:20.696Z,1.80
2018-07-10T22:11:49.549Z,2.23
2018-07-10T22:14:18.331Z,2.20
2018-07-10T22:16:46.560Z,1.73
2018-07-10T22:19:18.325Z,1.90
2018-07-10T22:21:46.562Z,2.10
2018-07-10T22:24:15.119Z,2.10
2018-07-10T22:26:43.414Z,2.20
2018-07-10T22:29:11.968Z,1.87
2018-07-10T22:31:45.716Z,2.67
2018-07-10T22:34:14.113Z,1.90
2018-07-10T22:36:42.410Z,2.20
2018-07-10T22:39:10.646Z,2.27
2018-07-10T22:41:39.155Z,1.80
2018-07-10T22:44:07.403Z,2.30
2018-07-10T22:46:35.659Z,2.40
2018-07-10T22:49:07.020Z,2.47
2018-07-10T22:51:35.252Z,2.07
2018-07-10T22:54:03.987Z,2.13
2018-07-10T22:56:33.740Z,2.20
2018-07-10T22:59:02.265Z,1.90
2018-07-10T23:01:31.450Z,2.30
2018-07-10T23:03:59.709Z,2.10
2018-07-10T23:06:27.984Z,2.23
2018-07-10T23:08:56.226Z,2.53
2018-07-10T23:11:24.510Z,2.40
2018-07-10T23:13:53.863Z,2.23
2018-07-10T23:16:22.183Z,2.03
2018-07-10T23:18:50.375Z,2.20
2018-07-10T23:21:19.463Z,1.97
2018-07-10T23:23:48.296Z,1.73
2018-07-10T23:26:19.289Z,2.10
2018-07-10T23:28:51.654Z,2.10
2018-07-10T23:31:20.027Z,1.80
2018-07-10T23:33:52.561Z,2.23
2018-07-10T23:36:20.780Z,1.97
2018-07-10T23:38:55.323Z,2.57
2018-07-10T23:41:25.939Z,2.10
2018-07-10T23:43:53.872Z,1.83
2018-07-10T23:46:32.780Z,2.00
2018-07-10T23:49:08.549Z,1.70
2018-07-10T23:51:48.231Z,2.13
2018-07-10T23:54:16.512Z,1.87
2018-07-10T23:56:44.768Z,2.43
2018-07-10T23:59:12.958Z,2.20
